createdAt,value
2023-04-02T00:01:52.962Z,99183.47
2023-04-02T00:07:31.149Z,99184.48
2023-04-02T00:12:34.637Z,99183.42
2023-04-02T00:17:38.255Z,99189.13
2023-04-02T00:22:45.280Z,99194.06
2023-04-02T00:27:49.096Z,99206.15
2023-04-02T00:32:53.031Z,99211.58
2023-04-02T00:37:57.957Z,99217.44
2023-04-02T00:43:04.673Z,99221.23
2023-04-02T00:48:25.573Z,99222.02
2023-04-02T00:53:31.244Z,99227.30
2023-04-02T00:58:37.004Z,99233.99
2023-04-02T01:03:41.545Z,99239.01
2023-04-02T01:09:21.613Z,99243.64
2023-04-02T01:14:43.353Z,99250.27
2023-04-02T01:20:01.212Z,99251.71
2023-04-02T01:25:06.708Z,99256.70
2023-04-02T01:30:12.945Z,99260.64
2023-04-02T01:35:16.765Z,99265.85
2023-04-02T01:40:26.022Z,99271.64
2023-04-02T01:45:29.945Z,99276.01
2023-04-02T01:50:39.407Z,99278.54
2023-04-02T01:55:57.050Z,99280.87
2023-04-02T02:01:04.415Z,99292.75
2023-04-02T02:06:13.905Z,99296.72
2023-04-02T02:11:23.140Z,99298.09
2023-04-02T02:16:29.406Z,99299.73
2023-04-02T02:21:43.817Z,99309.83
2023-04-02T02:26:51.227Z,99312.59
2023-04-02T02:31:58.191Z,99317.28
2023-04-02T02:37:35.963Z,99323.78
2023-04-02T02:42:47.229Z,99323.28
2023-04-02T02:47:53.231Z,99324.67
2023-04-02T02:52:59.480Z,99334.25
2023-04-02T02:58:10.473Z,99345.29
2023-04-02T03:03:20.318Z,99344.52
2023-04-02T03:08:37.087Z,99352.35
2023-04-02T03:13:46.914Z,99357.75
2023-04-02T03:19:08.864Z,99363.71
2023-04-02T03:24:15.054Z,99373.01
2023-04-02T03:29:28.342Z,99382.27
2023-04-02T03:34:37.340Z,99387.55
2023-04-02T03:39:59.086Z,99393.19
2023-04-02T03:45:02.393Z,99398.73
2023-04-02T03:50:14.713Z,99415.93
2023-04-02T03:55:31.568Z,99425.30
2023-04-02T04:00:37.615Z,99429.04
2023-04-02T04:05:52.094Z,99434.79
2023-04-02T04:10:58.193Z,99438.59
2023-04-02T04:16:08.466Z,99454.71
2023-04-02T04:21:37.939Z,99461.16
2023-04-02T04:27:18.761Z,99464.14
2023-04-02T04:32:34.430Z,99470.69
2023-04-02T04:37:43.134Z,99476.98
2023-04-02T04:42:49.903Z,99486.84
2023-04-02T04:48:09.371Z,99493.86
2023-04-02T04:53:24.936Z,99505.74
2023-04-02T04:58:45.996Z,99512.84
2023-04-02T05:03:55.052Z,99520.80
2023-04-02T05:09:07.065Z,99525.83
2023-04-02T05:14:25.110Z,99532.48
2023-04-02T05:19:46.659Z,99537.77
2023-04-02T05:25:27.501Z,99550.52
2023-04-02T05:30:47.140Z,99562.59
2023-04-02T06:06:42.318Z,99581.94
2023-04-02T06:11:57.142Z,99591.61
2023-04-02T06:23:40.790Z,99609.06
2023-04-02T06:29:02.815Z,99622.91
2023-04-02T06:34:13.471Z,99629.86
2023-04-02T06:39:23.578Z,99634.67
2023-04-02T06:44:32.492Z,99640.33
2023-04-02T06:49:45.627Z,99652.45
2023-04-02T06:54:48.975Z,99652.72
2023-04-02T06:59:52.765Z,99658.92
2023-04-02T07:05:03.358Z,99664.05
2023-04-02T07:10:09.402Z,99668.52
2023-04-02T07:15:24.321Z,99682.42
2023-04-02T07:20:38.557Z,99690.67
2023-04-02T07:25:42.177Z,99697.86
2023-04-02T07:30:46.410Z,99708.05
2023-04-02T07:35:50.658Z,99710.38
2023-04-02T07:40:54.002Z,99718.31
2023-04-02T07:45:57.470Z,99720.95
2023-04-02T07:51:03.418Z,99727.36
2023-04-02T07:56:07.976Z,99731.20
2023-04-02T08:01:26.140Z,99740.75
2023-04-02T08:06:30.582Z,99743.48
2023-04-02T08:11:33.684Z,99753.70
2023-04-02T08:16:52.134Z,99762.42
2023-04-02T08:21:56.702Z,99775.02
2023-04-02T08:27:00.027Z,99781.27
2023-04-02T08:32:03.726Z,99789.69
2023-04-02T08:37:07.138Z,99795.98
2023-04-02T08:42:13.833Z,99802.21
2023-04-02T08:47:20.730Z,99810.33
2023-04-02T08:52:29.069Z,99817.50
2023-04-02T08:57:56.835Z,99815.51
2023-04-02T09:03:11.249Z,99826.60
2023-04-02T09:08:19.528Z,99832.47
2023-04-02T09:13:28.864Z,99840.84
2023-04-02T09:18:33.636Z,99849.35
2023-04-02T09:23:37.145Z,99857.90
2023-04-02T09:28:41.991Z,99870.02
2023-04-02T09:33:49.235Z,99878.61
2023-04-02T09:39:20.671Z,99884.72
2023-04-02T09:44:31.477Z,99891.23
2023-04-02T09:49:38.204Z,99901.02
2023-04-02T09:54:44.637Z,99910.37
2023-04-02T09:59:48.157Z,99912.70
2023-04-02T10:04:52.066Z,99922.75
2023-04-02T10:10:00.642Z,99929.92
2023-04-02T10:15:04.967Z,99935.20
2023-04-02T10:20:29.344Z,99942.92
2023-04-02T10:25:42.756Z,99950.14
2023-04-02T10:31:08.547Z,99948.26
2023-04-02T10:36:41.336Z,99955.23
2023-04-02T10:41:47.811Z,99960.86
2023-04-02T10:47:21.952Z,99960.98
2023-04-02T10:52:35.703Z,99970.90
2023-04-02T10:57:43.661Z,99982.29
2023-04-02T11:03:31.925Z,99985.85
2023-04-02T11:08:46.970Z,99993.89
2023-04-02T11:13:56.733Z,100005.11
2023-04-02T11:19:15.098Z,100013.52
2023-04-02T11:24:24.347Z,100021.55
2023-04-02T11:29:31.039Z,100029.95
2023-04-02T11:35:02.922Z,100032.56
2023-04-02T11:40:12.034Z,100040.41
2023-04-02T11:45:22.165Z,100050.96
2023-04-02T11:50:31.907Z,100051.75
2023-04-02T11:55:36.724Z,100059.16
2023-04-02T12:01:18.767Z,100069.69
2023-04-02T12:06:35.383Z,100072.09
2023-04-02T12:11:41.011Z,100080.76
2023-04-02T12:16:44.640Z,100093.34
2023-04-02T12:21:48.795Z,100092.69
2023-04-02T12:27:17.423Z,100096.27
2023-04-02T12:32:31.261Z,100109.48
2023-04-02T12:37:34.871Z,100111.89
2023-04-02T12:42:38.391Z,100111.17
2023-04-02T12:47:45.661Z,100118.37
2023-04-02T12:52:55.199Z,100119.27
2023-04-02T12:58:00.101Z,100129.78
2023-04-02T13:03:06.322Z,100141.39
2023-04-02T13:08:23.007Z,100150.07
2023-04-02T13:13:34.920Z,100147.56
2023-04-02T13:18:39.055Z,100156.31
2023-04-02T13:23:42.971Z,100164.89
2023-04-02T13:29:02.271Z,100171.39
2023-04-02T13:34:05.670Z,100185.65
2023-04-02T13:39:09.287Z,100182.30
2023-04-02T13:44:33.213Z,100188.27
2023-04-02T13:49:36.595Z,100191.52
2023-04-02T13:54:51.986Z,100196.77
2023-04-02T13:59:55.812Z,100198.65
2023-04-02T14:05:14.391Z,100190.45
2023-04-02T14:10:34.389Z,100204.95
2023-04-02T14:15:38.137Z,100206.48
2023-04-02T14:20:44.495Z,100210.31
2023-04-02T14:26:14.113Z,100215.76
2023-04-02T14:31:35.476Z,100227.38
2023-04-02T14:37:07.162Z,100227.72
2023-04-02T14:42:16.887Z,100239.11
2023-04-02T14:47:29.834Z,100235.06
2023-04-02T14:52:35.485Z,100250.78
2023-04-02T14:57:45.046Z,100249.48
2023-04-02T15:03:04.530Z,100246.98
2023-04-02T15:08:15.949Z,100259.36
2023-04-02T15:13:25.565Z,100267.67
2023-04-02T15:18:33.212Z,100272.84
2023-04-02T15:24:04.057Z,100275.70
2023-04-02T15:29:28.770Z,100283.89
2023-04-02T15:35:21.423Z,100290.09
2023-04-02T15:40:36.328Z,100295.14
2023-04-02T15:46:01.398Z,100304.95
2023-04-02T15:51:23.189Z,100311.87
2023-04-02T15:56:35.211Z,100321.60
2023-04-02T16:02:02.985Z,100323.13
2023-04-02T16:07:31.285Z,100338.15
2023-04-02T16:12:37.268Z,100330.56
2023-04-02T16:17:47.254Z,100340.55
2023-04-02T16:23:24.975Z,100357.70
2023-04-02T16:28:36.033Z,100373.31
2023-04-02T16:34:34.130Z,100393.50
2023-04-02T16:49:25.772Z,100433.14
2023-04-02T16:55:23.694Z,100442.67
2023-04-02T17:00:38.159Z,100450.98
2023-04-02T17:05:59.961Z,100454.17
2023-04-02T17:11:07.079Z,100462.63
2023-04-02T17:16:28.872Z,100464.17
2023-04-02T17:21:32.946Z,100473.31
2023-04-02T17:26:38.136Z,100474.73
2023-04-02T17:31:46.127Z,100484.54
2023-04-02T17:36:56.262Z,100485.68
2023-04-02T17:42:20.767Z,100498.78
2023-04-02T17:47:35.160Z,100500.91
2023-04-02T17:52:44.168Z,100511.42
2023-04-02T18:05:15.802Z,100530.23
2023-04-02T18:11:14.842Z,100546.56
2023-04-02T18:16:30.032Z,100554.33
2023-04-02T18:21:46.669Z,100566.05
2023-04-02T18:27:11.142Z,100573.77
2023-04-02T18:32:59.145Z,100575.19
2023-04-02T18:38:20.979Z,100583.75
2023-04-02T18:43:43.726Z,100595.86
2023-04-02T18:49:00.441Z,100594.96
2023-04-02T18:54:13.886Z,100602.90
2023-04-02T18:59:42.181Z,100610.46
2023-04-02T19:04:53.618Z,100611.66
2023-04-02T19:10:09.599Z,100616.81
2023-04-02T19:15:20.408Z,100619.58
2023-04-02T19:20:53.276Z,100621.41
2023-04-02T19:26:08.984Z,100633.09
2023-04-02T19:31:16.214Z,100639.43
2023-04-02T19:36:24.113Z,100645.88
2023-04-02T19:41:44.312Z,100645.56
2023-04-02T19:46:48.148Z,100656.91
2023-04-02T19:51:52.180Z,100667.49
2023-04-02T19:56:55.987Z,100670.80
2023-04-02T20:01:59.495Z,100674.17
2023-04-02T20:07:03.176Z,100677.58
2023-04-02T20:12:06.731Z,100688.44
2023-04-02T20:17:10.049Z,100690.63
2023-04-02T20:22:13.360Z,100695.00
2023-04-02T20:27:17.175Z,100701.80
2023-04-02T20:32:20.561Z,100708.87
2023-04-02T20:37:24.248Z,100715.43
2023-04-02T20:42:27.929Z,100716.73
2023-04-02T20:47:31.266Z,100726.34
2023-04-02T20:52:36.092Z,100731.73
2023-04-02T20:57:39.914Z,100735.08
2023-04-02T21:02:43.238Z,100739.05
2023-04-02T21:07:48.887Z,100742.05
2023-04-02T21:12:52.200Z,100749.60
2023-04-02T21:17:55.720Z,100756.19
2023-04-02T21:22:59.442Z,100760.80
2023-04-02T21:28:02.845Z,100765.48
2023-04-02T21:33:06.802Z,100770.44
2023-04-02T21:38:10.183Z,100769.88
2023-04-02T21:43:13.691Z,100770.42
2023-04-02T21:48:17.208Z,100779.40
2023-04-02T21:53:20.734Z,100783.14
2023-04-02T21:58:24.138Z,100781.89
2023-04-02T22:03:31.737Z,100786.08
2023-04-02T22:08:36.493Z,100788.27
2023-04-02T22:13:40.035Z,100793.79
2023-04-02T22:18:44.512Z,100797.55
2023-04-02T22:23:49.699Z,100805.06
2023-04-02T22:28:53.322Z,100812.52
2023-04-02T22:33:58.061Z,100809.05
2023-04-02T22:39:05.690Z,100808.66
2023-04-02T22:44:14.584Z,100811.45
2023-04-02T22:49:19.673Z,100812.31
2023-04-02T22:54:23.185Z,100818.98
2023-04-02T22:59:26.906Z,100822.40
2023-04-02T23:04:30.318Z,100826.66
2023-04-02T23:09:33.832Z,100830.55
2023-04-02T23:14:37.249Z,100835.20
2023-04-02T23:19:40.975Z,100834.81
2023-04-02T23:24:44.383Z,100837.06
2023-04-02T23:29:49.028Z,100835.90
2023-04-02T23:34:52.439Z,100834.96
2023-04-02T23:39:55.953Z,100838.67
2023-04-02T23:44:59.572Z,100835.59
2023-04-02T23:50:03.409Z,100839.38
2023-04-02T23:55:07.332Z,100839.38
